Time;durP1;ratioP1;P1;durP2;ratioP2;P2;SDS_P1;SDS_P2;PMS_P1;PMS_P2;Temp;Humidity;BMP_temperature;BMP_pressure;BME280_temperature;BME280_humidity;BME280_pressure;Samples;Min_cycle;Max_cycle;Signal;HPM_P1;HPM_P2
2022/01/20 00:01:49;;;;;;;26.80;15.60;;;;;;;2.61;99.87;100761.84;7400096;19;20014;-64
2022/01/20 00:04:24;;;;;;;27.60;15.07;;;;;;;2.67;99.71;100750.69;7400098;19;20017;-64
2022/01/20 00:25:46;;;;;;;16.77;4.40;;;;;;;2.66;92.90;100753.25;7396241;19;20014;-64
2022/01/20 00:26:21;;;;;;;25.65;4.75;;;;;;;2.63;92.08;100764.47;7400411;19;20015;-64
2022/01/20 00:28:52;;;;;;;19.33;3.75;;;;;;;2.60;92.22;100743.69;7400768;19;20078;-64
2022/01/20 00:34:13;;;;;;;20.08;3.60;;;;;;;2.54;90.39;100751.38;7397343;19;20356;-64
2022/01/20 00:39:26;;;;;;;21.38;4.20;;;;;;;2.52;90.15;100751.38;7399023;19;20017;-64
2022/01/20 00:41:54;;;;;;;20.67;2.75;;;;;;;2.51;88.99;100741.88;7396919;19;20011;-64
2022/01/20 00:44:23;;;;;;;23.20;4.00;;;;;;;2.47;89.50;100747.00;7398746;19;20022;-64
2022/01/20 00:46:52;;;;;;;18.98;3.00;;;;;;;2.48;88.79;100753.91;7397983;19;20045;-64
2022/01/20 00:49:20;;;;;;;27.50;3.55;;;;;;;2.46;89.03;100758.22;7398507;19;20011;-64
2022/01/20 00:51:48;;;;;;;16.23;3.35;;;;;;;2.42;87.78;100778.88;7398548;19;20014;-64
2022/01/20 00:54:17;;;;;;;21.55;3.67;;;;;;;2.39;87.44;100760.72;7397118;19;20019;-64
2022/01/20 00:56:48;;;;;;;30.63;4.70;;;;;;;2.37;87.66;100767.59;7397467;19;20014;-64
2022/01/20 00:59:16;;;;;;;19.63;3.22;;;;;;;2.37;89.60;100777.94;7398659;19;20017;-64
2022/01/20 01:01:45;;;;;;;16.55;2.95;;;;;;;2.34;87.69;100785.69;7398231;19;20036;-65
2022/01/20 01:04:13;;;;;;;16.15;3.03;;;;;;;2.31;86.36;100789.97;7398114;19;20014;-65
2022/01/20 01:06:59;;;;;;;21.08;2.83;;;;;;;2.30;87.17;100785.63;7397120;19;20040;-64
2022/01/20 01:09:27;;;;;;;15.35;3.20;;;;;;;2.27;87.53;100782.16;7398269;19;20031;-65
2022/01/20 01:12:02;;;;;;;18.65;3.03;;;;;;;2.25;87.13;100793.31;7397417;19;20387;-64
2022/01/20 01:14:33;;;;;;;24.67;4.03;;;;;;;2.21;87.06;100776.91;7396670;19;20014;-64
2022/01/20 01:20:11;;;;;;;17.73;3.20;;;;;;;2.17;86.70;100774.25;7397992;19;20070;-64
2022/01/20 01:22:39;;;;;;;16.13;3.35;;;;;;;2.26;87.55;100784.72;7394617;19;20463;-64
2022/01/20 01:25:08;;;;;;;21.27;3.22;;;;;;;2.28;88.59;100781.28;7396919;19;20406;-65
2022/01/20 01:27:41;;;;;;;16.17;2.65;;;;;;;2.30;86.96;100801.16;7395861;19;20022;-65
2022/01/20 01:30:21;;;;;;;17.80;3.55;;;;;;;2.31;86.16;100785.63;7396857;19;20363;-66
2022/01/20 01:32:53;;;;;;;15.73;2.80;;;;;;;2.33;86.86;100827.13;7397554;19;20021;-65
2022/01/20 01:35:26;;;;;;;16.35;2.80;;;;;;;2.36;87.06;100802.09;7395694;19;20364;-65
2022/01/20 01:40:41;;;;;;;17.88;3.35;;;;;;;2.36;85.65;100812.47;7396255;19;20490;-66
2022/01/20 01:43:25;;;;;;;14.88;2.38;;;;;;;2.37;85.27;100792.63;7397169;19;20018;-63
2022/01/20 01:45:54;;;;;;;22.00;3.38;;;;;;;2.38;84.75;100794.38;7396955;19;20355;-65
2022/01/20 01:48:22;;;;;;;13.35;2.20;;;;;;;2.37;85.41;100803.84;7396560;19;20366;-64
2022/01/20 01:50:51;;;;;;;17.02;2.63;;;;;;;2.37;84.86;100785.72;7396509;19;20014;-64
2022/01/20 01:53:20;;;;;;;14.82;2.67;;;;;;;2.34;83.41;100790.88;7396251;19;20018;-64
2022/01/20 01:55:49;;;;;;;13.05;2.00;;;;;;;2.33;83.60;100789.13;7396598;19;20075;-65
2022/01/20 01:58:20;;;;;;;8.85;1.65;;;;;;;2.34;83.37;100798.66;7396309;19;20022;-67
2022/01/20 02:00:48;;;;;;;14.63;2.58;;;;;;;2.34;84.25;100790.88;7396622;19;20032;-66
2022/01/20 02:03:16;;;;;;;11.27;1.83;;;;;;;2.30;82.29;100786.50;7396044;19;20019;-66
2022/01/20 02:06:00;;;;;;;11.13;2.03;;;;;;;2.28;81.85;100817.53;7396097;19;20036;-67
2022/01/20 02:08:35;;;;;;;21.87;2.73;;;;;;;2.25;81.79;100798.50;7396627;19;20033;-66
2022/01/20 02:19:09;;;;;;;10.52;3.05;;;;;;;2.06;84.35;100792.22;7395854;19;20013;-66
2022/01/20 02:21:48;;;;;;;8.40;2.45;;;;;;;1.93;81.48;100791.16;7395555;19;20022;-65
2022/01/20 02:24:16;;;;;;;10.15;2.22;;;;;;;1.91;81.23;100790.31;7395999;19;20022;-66
2022/01/20 02:26:44;;;;;;;13.48;2.20;;;;;;;1.83;81.43;100810.84;7394518;19;20504;-67
2022/01/20 02:29:13;;;;;;;14.35;2.80;;;;;;;1.79;81.99;100820.31;7395366;19;20036;-65
2022/01/20 02:31:41;;;;;;;13.73;2.28;;;;;;;1.76;83.67;100807.31;7395449;19;20015;-66
2022/01/20 02:34:13;;;;;;;10.75;1.75;;;;;;;1.72;82.50;100812.41;7396287;19;20015;-65
2022/01/20 02:36:46;;;;;;;12.32;2.13;;;;;;;1.62;82.86;100807.09;7402327;19;20074;-65
2022/01/20 02:39:27;;;;;;;9.98;2.05;;;;;;;1.65;82.80;100811.44;7403072;19;20018;-65
2022/01/20 02:44:56;;;;;;;13.50;2.22;;;;;;;1.60;83.53;100800.16;7402913;19;20018;-67
2022/01/20 02:47:27;;;;;;;11.30;1.85;;;;;;;1.56;82.75;100808.72;7400363;19;20371;-67
2022/01/20 02:49:56;;;;;;;10.68;2.05;;;;;;;1.55;83.50;100812.16;7402979;19;20060;-68
2022/01/20 02:52:28;;;;;;;11.20;2.00;;;;;;;1.50;82.23;100801.72;7402548;19;20033;-68
2022/01/20 02:54:57;;;;;;;16.33;2.25;;;;;;;1.49;83.08;100818.06;7400167;19;20475;-67
2022/01/20 02:57:25;;;;;;;10.00;2.25;;;;;;;1.46;83.24;100811.13;7400442;19;20014;-67
2022/01/20 02:59:54;;;;;;;13.27;1.83;;;;;;;1.46;84.36;100821.47;7402280;19;20019;-68
2022/01/20 03:02:22;;;;;;;14.40;2.00;;;;;;;1.44;83.97;100809.38;7402357;19;20015;-68
2022/01/20 03:04:51;;;;;;;16.15;2.40;;;;;;;1.41;84.83;100805.03;7402107;19;20026;-68
2022/01/20 03:07:19;;;;;;;15.68;2.40;;;;;;;1.38;83.91;100820.50;7400682;19;20029;-66
2022/01/20 03:09:50;;;;;;;14.23;2.88;;;;;;;1.38;84.81;100817.03;7401356;19;20479;-67
2022/01/20 03:12:18;;;;;;;12.85;3.35;;;;;;;1.36;84.29;100809.25;7402186;19;20018;-67
2022/01/20 03:14:46;;;;;;;6.43;1.98;;;;;;;1.34;85.52;100795.44;7400176;19;20010;-67
2022/01/20 03:17:16;;;;;;;16.88;2.67;;;;;;;1.33;84.05;100791.13;7399981;19;20040;-67
2022/01/20 03:19:44;;;;;;;14.05;2.30;;;;;;;1.30;84.44;100786.75;7402626;19;20038;-68
2022/01/20 03:22:12;;;;;;;13.43;2.33;;;;;;;1.29;84.04;100777.25;7403125;19;20019;-68
2022/01/20 03:24:40;;;;;;;18.50;2.30;;;;;;;1.29;84.53;100777.25;7403140;19;20051;-67
2022/01/20 03:27:12;;;;;;;14.93;2.70;;;;;;;1.25;85.39;100779.75;7399959;19;20015;-66
2022/01/20 03:29:40;;;;;;;12.65;3.53;;;;;;;1.30;85.06;100765.19;7401251;19;20362;-66
2022/01/20 03:32:09;;;;;;;19.80;3.45;;;;;;;1.31;85.60;100766.94;7401032;19;20014;-67
2022/01/20 03:34:37;;;;;;;23.42;3.50;;;;;;;1.32;85.78;100753.19;7399704;19;20019;-67
2022/01/20 03:37:06;;;;;;;21.70;2.65;;;;;;;1.32;86.70;100749.75;7399006;19;20483;-67
2022/01/20 03:39:35;;;;;;;14.57;2.90;;;;;;;1.34;85.25;100746.34;7400358;19;20493;-67
2022/01/20 03:42:04;;;;;;;21.88;2.85;;;;;;;1.35;85.14;100740.28;7398487;19;20032;-67
2022/01/20 03:44:35;;;;;;;20.02;2.72;;;;;;;1.31;83.88;100751.44;7400741;19;20353;-66
2022/01/20 03:47:03;;;;;;;24.77;3.10;;;;;;;1.30;85.57;100723.84;7397333;19;20018;-67
2022/01/20 03:49:37;;;;;;;16.65;2.58;;;;;;;1.35;85.63;100729.09;7400565;19;20375;-67
2022/01/20 03:52:06;;;;;;;18.85;3.30;;;;;;;1.40;86.70;100735.19;7400606;19;20360;-67
2022/01/20 03:54:35;;;;;;;14.10;2.85;;;;;;;1.39;86.14;100724.00;7399469;19;20015;-67
2022/01/20 03:57:03;;;;;;;15.45;2.53;;;;;;;1.40;86.90;100727.44;7398647;19;20479;-67
2022/01/20 03:59:34;;;;;;;17.08;3.35;;;;;;;1.38;83.83;100735.19;7400181;19;20018;-66
2022/01/20 04:02:05;;;;;;;24.33;3.50;;;;;;;1.38;84.39;100727.44;7400626;19;20025;-67
2022/01/20 04:04:33;;;;;;;23.92;3.10;;;;;;;1.39;83.95;100715.34;7400373;19;20007;-67
2022/01/20 04:07:01;;;;;;;21.38;3.53;;;;;;;1.39;82.96;100711.06;7398669;19;20023;-67
2022/01/20 04:09:30;;;;;;;24.63;3.50;;;;;;;1.41;83.55;100718.84;7399686;19;20021;-66
2022/01/20 04:11:58;;;;;;;18.48;3.45;;;;;;;1.45;85.83;100710.28;7399505;19;20521;-66
2022/01/20 04:14:29;;;;;;;22.30;3.75;;;;;;;1.47;84.74;100695.69;7399057;19;20040;-66
2022/01/20 04:17:04;;;;;;;19.85;3.58;;;;;;;1.49;84.51;100681.03;7398159;19;20519;-66
2022/01/20 04:19:33;;;;;;;22.63;4.97;;;;;;;1.50;82.94;100698.28;7399639;19;20028;-66
2022/01/20 04:22:02;;;;;;;18.88;3.72;;;;;;;1.53;84.36;100694.88;7399094;19;20018;-66
2022/01/20 04:24:30;;;;;;;20.05;3.97;;;;;;;1.54;83.33;100683.69;7399343;19;20019;-66
2022/01/20 04:26:59;;;;;;;27.80;4.80;;;;;;;1.56;82.63;100695.81;7398060;19;20028;-66
2022/01/20 04:29:27;;;;;;;17.48;3.15;;;;;;;1.59;83.52;100705.31;7399202;19;20032;-68
2022/01/20 04:31:55;;;;;;;25.08;5.00;;;;;;;1.62;85.38;100702.78;7399791;19;20014;-67
2022/01/20 04:34:26;;;;;;;15.77;2.83;;;;;;;1.63;83.51;100712.25;7398597;19;20036;-67
2022/01/20 04:36:55;;;;;;;16.83;3.50;;;;;;;1.61;84.09;100722.59;7398134;19;20019;-66
2022/01/20 04:39:27;;;;;;;22.58;3.53;;;;;;;1.61;85.57;100701.03;7398576;19;20472;-66
2022/01/20 04:41:55;;;;;;;20.48;2.63;;;;;;;1.54;85.47;100701.78;7397257;19;20345;-67
2022/01/20 04:44:37;;;;;;;22.23;3.58;;;;;;;1.45;86.71;100680.16;7398966;19;20022;-66
2022/01/20 04:47:15;;;;;;;21.92;3.95;;;;;;;1.44;86.66;100698.19;7397927;19;20039;-66
2022/01/20 04:57:49;;;;;;;20.75;3.65;;;;;;;1.39;88.60;100694.69;7396567;19;20040;-68
2022/01/20 05:00:17;;;;;;;21.17;3.65;;;;;;;1.36;88.17;100703.25;7398905;19;20027;-67
2022/01/20 05:02:45;;;;;;;22.30;3.55;;;;;;;1.38;88.56;100723.97;7398570;19;20018;-67
2022/01/20 05:05:16;;;;;;;26.42;3.33;;;;;;;1.35;89.32;100732.53;7398576;19;20010;-66
2022/01/20 05:07:45;;;;;;;21.95;3.15;;;;;;;1.27;90.47;100726.38;7396938;19;20029;-66
2022/01/20 05:10:14;;;;;;;18.10;3.58;;;;;;;1.08;91.22;100731.25;7399007;19;20011;-67
2022/01/20 05:13:02;;;;;;;7.28;1.58;;;;;;;0.77;91.64;100741.06;7397950;19;20006;-67
2022/01/20 05:15:37;;;;;;;5.78;1.17;;;;;;;0.42;93.54;100741.25;7397800;19;20033;-67
2022/01/20 05:18:06;;;;;;;12.88;2.97;;;;;;;0.15;94.83;100750.19;7395700;19;20015;-66
2022/01/20 05:20:37;;;;;;;8.35;2.65;;;;;;;-0.04;95.83;100751.50;7397151;19;20018;-66
2022/01/20 05:23:05;;;;;;;7.25;2.75;;;;;;;-0.12;96.63;100778.81;7397560;19;20015;-65
2022/01/20 05:25:33;;;;;;;10.25;2.13;;;;;;;-0.14;97.10;100740.94;7397070;19;20040;-67
2022/01/20 05:28:08;;;;;;;10.57;3.40;;;;;;;-0.15;97.07;100759.81;7395197;19;20018;-67
2022/01/20 05:30:38;;;;;;;13.93;2.13;;;;;;;-0.14;97.16;100769.31;7396674;19;20018;-67
2022/01/20 05:33:07;;;;;;;15.65;2.30;;;;;;;-0.14;97.01;100767.56;7397491;19;20078;-67
2022/01/20 05:35:38;;;;;;;18.60;2.63;;;;;;;-0.12;96.89;100777.94;7395512;19;20014;-67
2022/01/20 05:38:07;;;;;;;12.40;1.80;;;;;;;-0.11;96.42;100766.81;7394974;19;20040;-67
2022/01/20 05:40:35;;;;;;;17.27;3.08;;;;;;;-0.11;96.29;100769.38;7396482;19;20035;-67
2022/01/20 05:43:05;;;;;;;11.30;1.58;;;;;;;-0.12;95.58;100771.06;7396199;19;20024;-67
2022/01/20 05:45:33;;;;;;;16.23;2.70;;;;;;;-0.11;96.16;100772.81;7396098;19;20025;-67
2022/01/20 05:48:10;;;;;;;11.30;2.42;;;;;;;-0.11;95.63;100771.97;7394248;19;20015;-67
2022/01/20 05:50:41;;;;;;;16.63;3.38;;;;;;;-0.11;95.28;100751.34;7396792;19;20015;-68
2022/01/20 05:53:10;;;;;;;18.55;3.63;;;;;;;-0.17;95.17;100770.09;7396672;19;20014;-66
2022/01/20 05:55:39;;;;;;;14.52;3.25;;;;;;;-0.12;95.10;100780.53;7394796;19;20436;-67
2022/01/20 05:58:09;;;;;;;11.65;2.03;;;;;;;-0.12;95.06;100796.00;7394310;19;20014;-67
2022/01/20 06:00:40;;;;;;;14.60;2.15;;;;;;;-0.16;94.58;100792.47;7394206;19;20031;-66
2022/01/20 06:05:52;;;;;;;9.45;2.42;;;;;;;-0.10;94.59;100800.38;7394838;19;20021;-67
2022/01/20 06:08:20;;;;;;;8.50;2.05;;;;;;;-0.10;94.28;100792.63;7393692;19;20014;-67
2022/01/20 06:10:48;;;;;;;8.85;2.13;;;;;;;-0.10;93.72;100778.84;7393842;19;20391;-67
2022/01/20 06:13:17;;;;;;;12.15;2.15;;;;;;;-0.13;93.10;100792.53;7395112;19;20099;-65
2022/01/20 06:15:45;;;;;;;10.48;2.03;;;;;;;-0.11;92.29;100780.56;7393477;19;20023;-66
2022/01/20 06:18:13;;;;;;;13.20;2.78;;;;;;;-0.11;91.73;100772.81;7392136;19;20032;-66
2022/01/20 06:20:42;;;;;;;16.35;2.10;;;;;;;-0.14;92.10;100780.47;7394191;19;20015;-67
2022/01/20 06:23:13;;;;;;;8.95;1.80;;;;;;;-0.12;91.15;100780.53;7394915;19;20010;-66
2022/01/20 06:25:41;;;;;;;17.33;3.83;;;;;;;-0.14;91.22;100782.19;7394484;19;20019;-66
2022/01/20 06:28:10;;;;;;;13.73;2.13;;;;;;;-0.18;89.66;100774.41;7392760;19;20018;-66
2022/01/20 06:30:40;;;;;;;12.98;2.75;;;;;;;-0.24;89.79;100770.78;7394653;19;20015;-66
2022/01/20 06:33:09;;;;;;;11.50;1.92;;;;;;;-0.22;88.90;100790.63;7394387;19;20380;-66
2022/01/20 06:35:38;;;;;;;8.55;2.78;;;;;;;-0.24;87.76;100796.56;7393609;19;20015;-66
2022/01/20 06:38:07;;;;;;;12.52;1.92;;;;;;;-0.26;88.64;100814.59;7391926;19;20456;-66
2022/01/20 06:40:38;;;;;;;12.95;2.22;;;;;;;-0.26;87.46;100836.94;7393871;19;20018;-66
2022/01/20 06:43:12;;;;;;;6.95;1.80;;;;;;;-0.27;87.28;100822.31;7391717;19;20475;-68
2022/01/20 06:45:41;;;;;;;7.53;1.60;;;;;;;-0.27;85.43;100812.84;7394444;19;20006;-66
2022/01/20 06:48:09;;;;;;;10.85;2.03;;;;;;;-0.25;85.05;100841.25;7392450;19;20023;-67
2022/01/20 06:50:37;;;;;;;6.18;2.33;;;;;;;-0.23;83.99;100844.75;7394660;19;20027;-67
2022/01/20 06:53:06;;;;;;;9.25;1.90;;;;;;;-0.22;82.92;100873.13;7394803;19;20452;-67
2022/01/20 06:55:34;;;;;;;5.15;1.48;;;;;;;-0.20;82.87;100873.19;7394086;19;20023;-67
2022/01/20 06:58:05;;;;;;;8.02;1.75;;;;;;;-0.16;81.92;100872.44;7392649;19;20074;-66
2022/01/20 07:00:33;;;;;;;12.63;1.90;;;;;;;-0.14;83.51;100865.59;7394013;19;20019;-67
2022/01/20 07:03:01;;;;;;;8.95;1.70;;;;;;;-0.14;83.52;100896.53;7393412;19;20018;-67
2022/01/20 07:05:30;;;;;;;9.77;2.30;;;;;;;-0.12;83.95;100899.16;7393803;19;20011;-67
2022/01/20 07:07:58;;;;;;;12.13;1.60;;;;;;;-0.12;83.98;100892.28;7392357;19;20026;-67
2022/01/20 07:10:26;;;;;;;10.00;2.85;;;;;;;-0.11;83.09;100890.59;7393920;19;20035;-67
2022/01/20 07:12:55;;;;;;;6.93;1.70;;;;;;;-0.10;82.12;100923.28;7393454;19;20015;-66
2022/01/20 07:15:25;;;;;;;14.65;1.88;;;;;;;-0.09;82.53;100925.03;7393424;19;20018;-66
2022/01/20 07:17:54;;;;;;;13.25;2.08;;;;;;;-0.08;82.99;100937.09;7390644;19;20022;-67
2022/01/20 07:20:22;;;;;;;7.65;1.60;;;;;;;-0.07;78.96;100937.13;7395958;19;20011;-67
2022/01/20 07:22:50;;;;;;;7.47;1.52;;;;;;;-0.06;76.36;100964.66;7400340;19;20486;-66
2022/01/20 07:25:19;;;;;;;12.95;1.88;;;;;;;-0.06;79.12;100938.88;7400568;19;20018;-67
2022/01/20 07:27:47;;;;;;;8.60;2.05;;;;;;;-0.05;76.51;100935.47;7398648;19;20151;-66
2022/01/20 07:30:15;;;;;;;8.02;1.88;;;;;;;-0.05;78.42;100947.47;7400372;19;20018;-67
2022/01/20 07:32:46;;;;;;;18.10;3.72;;;;;;;-0.06;79.35;100943.16;7400691;19;20027;-67
2022/01/20 07:35:15;;;;;;;10.48;3.00;;;;;;;-0.06;79.53;100959.50;7399931;19;20035;-66
2022/01/20 07:37:43;;;;;;;12.15;4.45;;;;;;;-0.05;80.97;100960.38;7397965;19;20018;-66
2022/01/20 07:40:12;;;;;;;17.95;6.90;;;;;;;-0.06;80.92;100980.16;7399837;19;20014;-66
2022/01/20 07:42:41;;;;;;;13.98;4.32;;;;;;;-0.06;80.23;100984.44;7398304;19;20023;-66
2022/01/20 07:45:10;;;;;;;10.13;2.35;;;;;;;-0.08;79.04;100986.09;7400058;19;20010;-66
2022/01/20 07:47:38;;;;;;;14.57;2.42;;;;;;;-0.08;80.06;100991.25;7398658;19;20010;-66
2022/01/20 07:50:09;;;;;;;12.63;4.18;;;;;;;-0.10;78.99;100996.38;7400097;19;20081;-66
2022/01/20 07:52:37;;;;;;;10.52;2.85;;;;;;;-0.11;79.57;100992.06;7400594;19;20011;-66
2022/01/20 07:55:07;;;;;;;14.15;2.45;;;;;;;-0.12;80.21;101000.63;7400081;19;20018;-67
2022/01/20 07:57:35;;;;;;;8.75;4.28;;;;;;;-0.14;78.45;100991.97;7398319;19;20023;-66
2022/01/20 08:00:04;;;;;;;13.63;2.92;;;;;;;-0.16;77.59;101001.38;7400130;19;20021;-67
2022/01/20 08:02:32;;;;;;;8.93;2.80;;;;;;;-0.16;75.80;101022.00;7399737;19;20015;-66
2022/01/20 08:05:00;;;;;;;11.98;1.95;;;;;;;-0.15;76.89;101018.59;7399658;19;20025;-67
2022/01/20 08:07:31;;;;;;;7.38;2.10;;;;;;;-0.13;78.08;101028.97;7398144;19;20018;-66
2022/01/20 08:09:59;;;;;;;10.23;1.75;;;;;;;-0.15;75.88;101033.19;7400067;19;20010;-66
2022/01/20 08:12:29;;;;;;;7.65;1.90;;;;;;;-0.14;73.12;101045.25;7399334;19;20010;-66
2022/01/20 08:14:59;;;;;;;10.48;2.20;;;;;;;-0.17;70.11;101043.47;7399410;19;20031;-66
2022/01/20 08:17:28;;;;;;;10.95;1.92;;;;;;;-0.15;71.96;101038.34;7397311;19;20045;-66
2022/01/20 08:19:58;;;;;;;8.30;2.05;;;;;;;-0.16;69.91;101047.81;7399471;19;20023;-67
2022/01/20 08:22:28;;;;;;;7.85;3.13;;;;;;;-0.15;70.04;101039.25;7399018;19;20018;-66
2022/01/20 08:24:58;;;;;;;10.95;3.08;;;;;;;-0.17;67.75;101031.44;7398404;19;20496;-67
2022/01/20 08:27:26;;;;;;;10.55;5.10;;;;;;;-0.13;70.09;101042.72;7397251;19;20043;-66
2022/01/20 08:29:55;;;;;;;11.02;4.35;;;;;;;-0.13;70.12;101050.44;7399699;19;20039;-67
2022/01/20 08:32:23;;;;;;;10.35;3.95;;;;;;;-0.12;68.92;101023.84;7397338;19;20011;-68
2022/01/20 08:34:51;;;;;;;11.05;3.30;;;;;;;-0.10;70.81;101044.50;7398622;19;20505;-67
2022/01/20 08:37:19;;;;;;;17.65;3.75;;;;;;;-0.10;70.16;101049.66;7396755;19;20040;-67
2022/01/20 08:39:48;;;;;;;7.55;2.03;;;;;;;-0.08;70.08;101048.00;7398209;19;20479;-67
2022/01/20 08:42:18;;;;;;;15.10;4.03;;;;;;;-0.08;72.71;101038.53;7396773;19;20501;-67
2022/01/20 08:44:48;;;;;;;15.48;3.28;;;;;;;-0.07;73.63;101047.19;7398926;19;20010;-66
2022/01/20 08:47:19;;;;;;;11.70;2.13;;;;;;;-0.05;70.62;101045.50;7396831;19;20475;-65
2022/01/20 08:49:49;;;;;;;11.40;2.53;;;;;;;-0.05;69.86;101042.91;7398784;19;20053;-67
2022/01/20 08:52:19;;;;;;;15.32;3.53;;;;;;;-0.03;71.39;101054.16;7398517;19;20031;-65
2022/01/20 08:54:47;;;;;;;11.63;2.72;;;;;;;-0.03;69.41;101065.34;7398602;19;20018;-66
2022/01/20 08:57:18;;;;;;;9.23;2.85;;;;;;;0.02;69.61;101052.56;7396412;19;20014;-66
2022/01/20 08:59:47;;;;;;;14.95;3.40;;;;;;;0.04;69.45;101055.19;7398575;19;20015;-66
2022/01/20 09:02:15;;;;;;;12.18;1.92;;;;;;;0.05;69.98;101070.72;7397934;19;20010;-66
2022/01/20 09:04:43;;;;;;;15.15;2.22;;;;;;;0.07;71.99;101057.88;7397686;19;20024;-66
2022/01/20 09:07:12;;;;;;;15.68;2.50;;;;;;;0.09;72.07;101048.44;7396897;19;20021;-66
2022/01/20 09:09:45;;;;;;;10.70;2.13;;;;;;;0.04;72.29;101060.34;7398271;19;20023;-67
2022/01/20 09:15:27;;;;;;;9.98;1.95;;;;;;;0.12;71.33;101085.50;7397687;19;20078;-67
2022/01/20 09:17:53;;;;;;;12.40;2.25;;;;;;;0.17;71.56;101072.75;7395122;19;20015;-67
2022/01/20 09:20:22;;;;;;;9.82;1.75;;;;;;;0.18;69.55;101102.88;7397485;19;20007;-66
2022/01/20 09:22:51;;;;;;;11.13;2.67;;;;;;;0.22;70.96;101078.03;7397264;19;20014;-66
2022/01/20 09:25:21;;;;;;;21.85;6.70;;;;;;;0.24;69.96;101084.09;7397045;19;20034;-67
2022/01/20 09:27:50;;;;;;;15.73;6.03;;;;;;;0.27;71.71;101086.78;7395210;19;20361;-67
2022/01/20 09:30:22;;;;;;;19.75;7.10;;;;;;;0.30;71.52;101094.56;7396879;19;20022;-67
2022/01/20 09:33:00;;;;;;;19.73;3.30;;;;;;;0.34;71.51;101098.13;7397101;19;20032;-67
2022/01/20 09:35:32;;;;;;;15.65;3.30;;;;;;;0.30;71.08;101087.72;7396910;19;20010;-67
2022/01/20 09:38:00;;;;;;;13.05;3.30;;;;;;;0.39;71.85;101148.16;7394533;19;20439;-67
2022/01/20 09:40:32;;;;;;;16.63;3.70;;;;;;;0.41;71.52;101092.28;7398559;19;20015;-68
2022/01/20 09:43:00;;;;;;;19.45;4.60;;;;;;;0.43;71.54;101088.00;7395665;19;20544;-66
2022/01/20 09:45:31;;;;;;;15.63;4.57;;;;;;;0.45;72.63;101101.84;7396381;19;20018;-67
2022/01/20 09:48:01;;;;;;;15.18;2.58;;;;;;;0.47;71.41;101108.78;7395250;19;20015;-67
2022/01/20 09:50:30;;;;;;;12.30;3.00;;;;;;;0.51;70.67;101108.88;7396376;19;20018;-67
2022/01/20 09:53:01;;;;;;;12.68;2.85;;;;;;;0.52;69.10;101120.94;7395948;19;20015;-67
2022/01/20 09:55:30;;;;;;;9.93;2.95;;;;;;;0.55;70.30;101116.72;7396682;19;20031;-66
2022/01/20 09:57:59;;;;;;;14.73;3.40;;;;;;;0.54;70.05;101096.03;7394444;19;20015;-67
2022/01/20 10:00:27;;;;;;;16.63;2.83;;;;;;;0.60;69.50;101115.13;7395857;19;20027;-66
2022/01/20 10:03:01;;;;;;;11.57;2.38;;;;;;;0.63;69.36;101128.16;7396123;19;20011;-67
2022/01/20 10:05:37;;;;;;;13.50;2.63;;;;;;;0.66;69.12;101117.00;7396540;19;20014;-67
2022/01/20 10:08:09;;;;;;;9.00;2.80;;;;;;;0.70;69.11;101136.03;7394258;19;20031;-67
2022/01/20 10:10:46;;;;;;;11.63;2.45;;;;;;;0.67;69.12;101110.13;7395873;19;20025;-66
2022/01/20 10:13:16;;;;;;;15.15;3.42;;;;;;;0.74;68.26;101109.44;7395914;19;20019;-65
2022/01/20 10:15:45;;;;;;;16.45;3.13;;;;;;;0.77;68.65;101107.81;7394400;19;20361;-66
2022/01/20 10:18:17;;;;;;;23.05;3.67;;;;;;;0.79;68.26;101106.13;7393669;19;20023;-67
2022/01/20 10:20:54;;;;;;;18.58;3.20;;;;;;;0.84;68.14;101105.38;7395528;19;20015;-66
2022/01/20 10:23:37;;;;;;;14.25;2.30;;;;;;;0.89;68.42;101119.28;7396005;19;20015;-66
2022/01/20 10:26:18;;;;;;;12.30;2.92;;;;;;;0.92;67.32;101140.00;7395201;19;20444;-66
2022/01/20 10:28:56;;;;;;;15.70;2.67;;;;;;;0.96;68.19;101116.88;7395639;19;20091;-66
2022/01/20 10:31:39;;;;;;;17.05;3.25;;;;;;;1.00;67.38;101119.53;7394711;19;20010;-66
2022/01/20 10:34:22;;;;;;;14.98;2.78;;;;;;;1.05;68.24;101123.97;7394611;19;20041;-66
2022/01/20 10:36:53;;;;;;;11.07;2.88;;;;;;;1.03;66.03;101099.81;7393994;19;20040;-66
2022/01/20 10:39:29;;;;;;;14.30;2.53;;;;;;;1.10;66.46;101101.69;7395256;19;20010;-66
2022/01/20 10:42:02;;;;;;;19.50;3.15;;;;;;;1.14;66.70;101113.84;7393977;19;20354;-66
2022/01/20 10:44:30;;;;;;;18.53;3.93;;;;;;;1.21;67.20;101119.16;7394730;19;20358;-66
2022/01/20 10:46:59;;;;;;;16.52;2.65;;;;;;;1.26;66.00;101117.53;7393777;19;20042;-66
2022/01/20 10:49:34;;;;;;;19.63;3.40;;;;;;;1.30;65.65;101115.06;7394736;19;20011;-66
2022/01/20 10:52:05;;;;;;;12.25;2.42;;;;;;;1.32;64.96;101109.06;7395119;19;20035;-67
2022/01/20 10:54:38;;;;;;;13.55;2.38;;;;;;;1.32;64.91;101125.44;7394949;19;20023;-66
2022/01/20 10:57:07;;;;;;;15.27;1.80;;;;;;;1.26;64.97;101102.03;7401757;19;20015;-66
2022/01/20 10:59:37;;;;;;;15.75;3.28;;;;;;;1.36;64.96;101132.41;7402230;19;20102;-66
2022/01/20 11:02:08;;;;;;;14.25;2.60;;;;;;;1.38;64.89;101116.94;7402088;19;20011;-66
2022/01/20 11:04:40;;;;;;;13.10;2.30;;;;;;;1.39;64.37;101150.59;7401457;19;20412;-66
2022/01/20 11:07:09;;;;;;;16.23;2.55;;;;;;;1.40;65.04;101118.75;7400364;19;20021;-66
2022/01/20 11:09:42;;;;;;;9.98;2.40;;;;;;;1.40;63.74;101149.78;7400982;19;20430;-66
2022/01/20 11:12:18;;;;;;;17.15;2.58;;;;;;;1.40;64.30;101126.50;7401964;19;20483;-66
2022/01/20 11:14:49;;;;;;;13.07;2.33;;;;;;;1.43;64.54;101117.94;7401395;19;20476;-65
2022/01/20 11:17:22;;;;;;;17.38;2.75;;;;;;;1.45;66.40;101096.44;7399438;19;20033;-66
2022/01/20 11:19:54;;;;;;;13.40;2.55;;;;;;;1.43;66.10;101102.41;7401396;19;20027;-66
2022/01/20 11:22:23;;;;;;;15.13;3.22;;;;;;;1.50;65.20;101096.50;7402028;19;20014;-66
2022/01/20 11:25:01;;;;;;;9.98;2.70;;;;;;;1.52;65.16;101094.84;7401097;19;20358;-66
2022/01/20 11:27:41;;;;;;;13.55;3.15;;;;;;;1.53;64.40;101108.63;7399148;19;20025;-66
2022/01/20 11:30:19;;;;;;;13.43;2.95;;;;;;;1.57;65.21;101097.53;7400848;19;20014;-67
2022/01/20 11:32:59;;;;;;;17.27;3.65;;;;;;;1.60;65.36;101087.25;7400073;19;20015;-67
2022/01/20 11:35:41;;;;;;;15.48;3.25;;;;;;;1.63;64.96;101074.34;7400691;19;20027;-67
2022/01/20 11:38:12;;;;;;;13.90;3.25;;;;;;;1.67;64.90;101080.47;7397995;19;20010;-66
2022/01/20 11:40:52;;;;;;;11.27;2.30;;;;;;;1.73;65.62;101073.72;7400354;19;20509;-66
2022/01/20 11:43:26;;;;;;;16.95;2.50;;;;;;;1.76;63.29;101078.94;7398532;19;20028;-66
2022/01/20 11:46:10;;;;;;;8.18;2.33;;;;;;;1.82;64.13;101075.63;7400554;19;20476;-67
2022/01/20 11:48:50;;;;;;;16.33;2.70;;;;;;;1.83;61.96;101094.59;7400986;19;20040;-67
2022/01/20 11:51:21;;;;;;;10.32;3.45;;;;;;;1.88;63.67;101077.44;7400974;19;20018;-67
2022/01/20 11:54:01;;;;;;;13.40;2.42;;;;;;;1.92;62.75;101062.00;7400865;19;20018;-67
2022/01/20 11:56:35;;;;;;;19.35;2.65;;;;;;;1.95;63.00;101079.31;7400038;19;20015;-67
2022/01/20 11:59:04;;;;;;;12.52;2.42;;;;;;;2.00;63.63;101095.81;7400311;19;20014;-67
2022/01/20 12:01:32;;;;;;;17.45;2.70;;;;;;;2.03;62.46;101100.16;7399824;19;20014;-67
2022/01/20 12:04:00;;;;;;;13.82;2.10;;;;;;;2.03;61.14;101066.50;7399856;19;20019;-67
2022/01/20 12:06:42;;;;;;;17.02;3.10;;;;;;;2.03;61.77;101067.38;7397363;19;20397;-67
2022/01/20 12:09:10;;;;;;;12.43;3.10;;;;;;;2.07;63.55;101070.91;7399658;19;20015;-67
2022/01/20 12:11:41;;;;;;;18.15;3.47;;;;;;;2.08;66.34;101065.75;7399576;19;20019;-68
2022/01/20 12:14:11;;;;;;;10.45;2.70;;;;;;;2.15;64.28;101061.56;7400330;19;20040;-67
2022/01/20 12:16:40;;;;;;;13.82;2.20;;;;;;;2.20;63.35;101061.63;7397035;19;20014;-67
2022/01/20 12:19:12;;;;;;;13.73;2.72;;;;;;;2.25;64.61;101052.22;7397937;19;20015;-66
2022/01/20 12:21:50;;;;;;;12.95;2.15;;;;;;;2.26;62.27;101048.78;7399082;19;20021;-67
2022/01/20 12:24:20;;;;;;;11.15;2.13;;;;;;;2.26;62.63;101072.09;7398937;19;20021;-66
2022/01/20 12:26:48;;;;;;;13.43;2.50;;;;;;;2.22;60.55;101053.03;7398117;19;20094;-66
2022/01/20 12:29:17;;;;;;;14.48;2.35;;;;;;;2.19;60.96;101086.66;7399256;19;20044;-66
2022/01/20 12:31:51;;;;;;;10.90;2.28;;;;;;;2.16;60.52;101065.91;7398623;19;20014;-66
2022/01/20 12:34:21;;;;;;;12.52;3.20;;;;;;;2.18;62.29;101068.53;7399116;19;20021;-67